Latest Weather Observations for Warracknabeal Airport

IDV60801

Issued at 11:23 pm EDT Friday 23 October 2020 (issued every 10 minutes, with the page automatically refreshed every 10 minutes)

About weather observations | Map of weather stations | Latest weather observations for VIC | Other Formats
Station Details ID: 078018 Name: WARRACKNABEAL AIRPORT Lat: -36.32 Lon: 142.42 Height: 118.3 m
Data from the previous 72 hours. | See also: Recent months at Warracknabeal Airport
Date/Time
EDT
Temp
°C
App
Temp
°C
Dew
Point
°C
Rel
Hum
%
Delta-T
°C
Wind Press
QNH
hPa
Press
MSL
hPa
Rain since
9am
mm
Dir  Spd
km/h
Gust
km/h
Spd
kts
Gust
kts
23/11:00pm 16.3 16.6 16.1 99 0.1 WSW 9 11 5 6 1004.1 1004.0 1.0
23/10:30pm 16.6 17.0 16.4 99 0.1 WSW 9 13 5 7 1004.3 1004.2 1.0
23/10:00pm 16.8 17.4 16.8 100 0.0 N 9 11 5 6 1004.1 1004.0 1.0
23/09:30pm 17.0 19.3 16.8 99 0.1 CALM 0 0 0 0 1004.3 1004.2 1.0
23/09:00pm 16.9 19.2 16.7 99 0.1 CALM 0 4 0 2 1004.2 1004.1 0.8
23/08:30pm 17.1 18.1 16.9 99 0.1 N 7 9 4 5 1004.2 1004.1 0.8
23/08:00pm 17.7 18.6 17.5 99 0.1 N 9 9 5 5 1004.0 1003.9 0.6
23/07:30pm 18.0 19.4 17.7 98 0.2 N 7 7 4 4 1003.8 1003.7 0.6
23/07:00pm 18.3 19.7 17.7 96 0.4 N 7 9 4 5 1003.8 1003.7 0.6
23/06:30pm 19.2 21.6 17.9 92 0.8 N 2 7 1 4 1003.7 1003.6 0.4
23/06:00pm 18.8 19.4 16.9 89 1.2 N 9 11 5 6 1003.9 1003.8 0.4
23/05:30pm 18.9 16.9 15.6 81 2.0 NNW 20 28 11 15 1004.2 1004.1 0.2
23/05:00pm 20.0 19.5 16.0 78 2.4 N 13 22 7 12 1004.2 1004.1 0.0
23/04:30pm 21.7 19.5 14.8 65 4.1 N 20 28 11 15 1003.7 1003.6 0.0
23/04:00pm 22.0 19.8 14.9 64 4.2 NNW 20 28 11 15 1003.7 1003.6 0.0
23/03:30pm 24.6 19.9 11.9 45 7.3 N 28 35 15 19 1003.8 1003.7 0.0
23/03:00pm 25.1 21.6 10.9 41 8.0 NNW 20 28 11 15 1004.0 1003.9 0.0
23/02:30pm 25.6 21.6 10.6 39 8.4 NNW 22 33 12 18 1004.3 1004.2 0.0
23/02:00pm 26.0 22.3 10.2 37 8.9 NNW 20 30 11 16 1004.5 1004.4 0.0
23/01:30pm 26.0 21.7 9.4 35 9.2 NNW 22 30 12 16 1004.8 1004.7 0.0
23/01:00pm 25.0 21.5 10.8 41 8.0 NNW 20 28 11 15 1005.4 1005.4 0.0
23/12:30pm 23.7 23.8 11.4 46 6.9 WNW 2 9 1 5 1005.9 1005.9 0.0
23/12:00pm 22.1 20.7 12.1 53 5.7 NW 11 15 6 8 1006.6 1006.6 0.0
23/11:30am 21.9 21.4 11.9 53 5.6 NE 6 9 3 5 1006.2 1006.2 0.0
23/11:00am 21.7 20.2 12.0 54 5.5 ENE 11 17 6 9 1006.1 1006.1 0.0
23/10:30am 20.3 19.0 12.5 61 4.4 ESE 11 17 6 9 1006.5 1006.5 0.0
23/10:00am 19.0 16.8 12.0 64 3.9 ENE 15 19 8 10 1006.8 1006.8 0.0
23/09:30am 19.1 17.8 12.6 66 3.7 ESE 11 15 6 8 1006.8 1006.8 0.0
23/09:00am 18.9 16.5 12.6 67 3.6 ESE 17 20 9 11 1006.8 1006.8 0.0
23/08:30am 16.8 15.8 12.3 75 2.5 ESE 9 13 5 7 1007.1 1007.1 0.0
23/08:00am 16.1 15.1 12.3 78 2.1 ESE 9 13 5 7 1006.9 1006.9 0.0
23/07:30am 15.8 14.0 12.0 78 2.1 ESE 13 17 7 9 1006.4 1006.4 0.0
23/07:00am 15.9 13.6 11.7 76 2.3 ESE 15 20 8 11 1006.2 1006.2 0.0
23/06:30am 15.6 13.7 11.8 78 2.1 ESE 13 17 7 9 1006.2 1006.2 0.0
23/06:00am 16.1 13.5 11.9 76 2.3 ESE 17 20 9 11 1006.3 1006.3 0.0
23/05:30am 16.0 14.2 12.0 77 2.2 ESE 13 17 7 9 1006.4 1006.4 0.0
23/05:00am 16.0 13.5 12.2 78 2.1 ESE 17 20 9 11 1006.1 1006.1 0.0
23/04:30am 15.8 13.3 12.2 79 2.0 ESE 17 22 9 12 1006.4 1006.4 0.0
23/04:00am 16.2 13.4 12.6 79 2.0 ESE 19 22 10 12 1006.7 1006.7 0.0
23/03:30am 16.1 13.7 12.7 80 1.9 SE 17 22 9 12 1006.9 1006.9 0.0
23/03:00am 16.2 13.9 13.1 82 1.7 ESE 17 22 9 12 1007.5 1007.5 0.0
23/02:30am 15.9 13.5 13.7 87 1.2 ESE 19 26 10 14 1007.7 1007.7 0.0
23/02:00am 16.0 13.6 13.8 87 1.2 SE 19 22 10 12 1008.1 1008.1 0.0
23/01:30am 16.0 14.0 14.0 88 1.1 SSE 17 20 9 11 1009.1 1009.0 0.0
23/01:00am 16.2 14.5 13.5 84 1.5 SE 15 17 8 9 1009.7 1009.6 0.0
23/12:30am 16.2 14.4 13.3 83 1.6 SE 15 20 8 11 1009.5 1009.4 0.0
23/12:00am 16.3 13.8 13.4 83 1.6 SSE 19 26 10 14 1009.4 1009.3 0.0
 
Date/Time
EDT
Temp
°C
App
Temp
°C
Dew
Point
°C
Rel
Hum
%
Delta-T
°C
Wind Press
QNH
hPa
Press
MSL
hPa
Rain since
9am
mm
Dir  Spd
km/h
Gust
km/h
Spd
kts
Gust
kts
22/11:30pm 16.0 13.7 12.9 82 1.7 SSE 17 22 9 12 1009.5 1009.4 0.0
22/11:00pm 15.8 13.3 12.2 79 2.0 SSE 17 20 9 11 1009.8 1009.7 0.0
22/10:30pm 16.2 13.8 11.4 73 2.6 SE 15 17 8 9 1010.4 1010.3 0.0
22/10:00pm 17.8 14.9 10.9 64 3.7 SE 17 22 9 12 1010.5 1010.4 0.0
22/09:30pm 18.4 15.4 10.8 61 4.1 SE 17 20 9 11 1010.6 1010.5 0.0
22/09:00pm 18.3 15.8 10.9 62 4.0 SSE 15 20 8 11 1010.6 1010.5 0.0
22/08:30pm 18.3 15.8 10.9 62 4.0 SSE 15 17 8 9 1010.7 1010.6 0.0
22/08:00pm 18.9 16.2 10.5 58 4.6 S 15 17 8 9 1010.5 1010.4 0.0
22/07:30pm 20.1 18.9 11.6 58 4.7 SSW 9 13 5 7 1010.4 1010.3 0.0
22/07:00pm 22.3 21.0 11.1 49 6.2 SSW 9 11 5 6 1010.3 1010.2 0.0
22/06:30pm 24.3 21.9 8.7 37 8.4 SSW 11 15 6 8 1010.4 1010.3 0.0
22/06:00pm 25.9 24.4 8.4 33 9.5 ESE 6 11 3 6 1010.3 1010.2 0.0
22/05:30pm 26.2 24.6 8.2 32 9.7 S 6 9 3 5 1010.4 1010.3 0.0
22/05:00pm 25.3 23.4 7.4 32 9.5 SE 7 13 4 7 1010.4 1010.3 0.0
22/04:30pm 25.3 23.4 7.4 32 9.5 E 7 11 4 6 1010.6 1010.5 0.0
22/04:00pm 25.9 24.0 7.5 31 9.8 N 7 13 4 7 1010.7 1010.6 0.0
22/03:30pm 25.8 23.2 7.9 32 9.6 S 11 20 6 11 1011.1 1011.0 0.0
22/03:00pm 25.0 22.7 7.6 33 9.3 S 9 15 5 8 1011.3 1011.2 0.0
22/02:30pm 25.1 22.7 6.8 31 9.6 SSE 9 17 5 9 1011.6 1011.5 0.0
22/02:00pm 24.8 21.8 7.9 34 9.0 S 13 20 7 11 1011.9 1011.8 0.0
22/01:30pm 25.0 22.9 8.1 34 9.1 E 9 17 5 9 1012.4 1012.3 0.0
22/01:00pm 24.0 21.7 7.6 35 8.7 SE 9 11 5 6 1012.8 1012.8 0.0
22/12:30pm 22.8 21.3 8.5 40 7.6 SE 6 13 3 7 1013.3 1013.3 0.0
22/12:00pm 21.6 19.7 9.2 45 6.7 ENE 9 15 5 8 1013.8 1013.8 0.0
22/11:30am 20.6 18.5 9.8 50 5.8 E 11 17 6 9 1014.2 1014.2 0.0
22/11:00am 19.8 16.9 9.7 52 5.4 ESE 15 20 8 11 1014.6 1014.6 0.0
22/10:30am 19.4 16.1 9.6 53 5.2 ESE 17 22 9 12 1014.7 1014.7 0.0
22/10:00am 17.4 14.6 10.1 62 3.9 SE 15 19 8 10 1015.1 1015.1 0.0
22/09:30am 15.2 12.3 9.6 69 2.9 SE 15 20 8 11 1015.3 1015.3 0.0
22/09:00am 13.2 9.4 8.9 75 2.2 SE 19 22 10 12 1015.1 1015.1 0.0
22/08:30am 11.6 8.5 8.8 83 1.4 SE 15 19 8 10 1015.1 1015.1 0.0
22/08:00am 9.4 5.6 7.7 89 0.8 SE 17 20 9 11 1014.8 1014.8 0.0
22/07:30am 8.0 4.1 7.2 95 0.4 SSE 17 20 9 11 1014.5 1014.5 0.0
22/07:00am 7.3 3.4 7.0 98 0.1 SSE 17 20 9 11 1014.2 1014.2 0.0
22/06:30am 7.2 3.7 7.1 99 0.0 SSE 15 19 8 10 1013.9 1013.9 0.0
22/06:00am 7.3 3.8 7.2 99 0.0 SSE 15 19 8 10 1013.8 1013.8 0.0
22/05:30am 7.6 4.6 7.5 99 0.0 SSE 13 17 7 9 1013.6 1013.6 0.0
22/05:00am 8.0 4.3 7.9 99 0.0 SSE 17 20 9 11 1013.5 1013.5 0.0
22/04:30am 8.2 4.5 8.1 99 0.0 SSE 17 20 9 11 1013.4 1013.4 0.0
22/04:00am 8.2 4.5 8.1 99 0.0 SSE 17 19 9 10 1013.6 1013.6 0.0
22/03:30am 8.4 5.2 8.3 99 0.0 SSE 15 19 8 10 1013.9 1013.9 0.0
22/03:00am 8.8 5.7 8.7 99 0.0 SE 15 17 8 9 1014.1 1014.1 0.0
22/02:30am 8.9 6.5 8.6 98 0.1 SE 11 15 6 8 1014.4 1014.4 0.0
22/02:00am 9.5 6.4 9.0 97 0.2 SE 15 19 8 10 1014.6 1014.6 0.0
22/01:30am 10.1 6.3 9.2 94 0.4 SE 19 22 10 12 1014.7 1014.7 0.0
22/01:00am 10.3 7.4 9.5 95 0.4 SSE 15 19 8 10 1015.2 1015.2 0.0
22/12:30am 10.5 8.1 9.9 96 0.3 SSE 13 17 7 9 1015.2 1015.2 0.0
22/12:00am 11.0 7.8 9.8 92 0.6 SSE 17 20 9 11 1015.0 1015.0 0.0
 
Date/Time
EDT
Temp
°C
App
Temp
°C
Dew
Point
°C
Rel
Hum
%
Delta-T
°C
Wind Press
QNH
hPa
Press
MSL
hPa
Rain since
9am
mm
Dir  Spd
km/h
Gust
km/h
Spd
kts
Gust
kts
21/11:30pm 11.5 8.6 9.8 89 0.9 SSE 15 20 8 11 1015.1 1015.1 0.0
21/11:00pm 12.2 9.3 9.8 85 1.2 SSE 15 19 8 10 1015.2 1015.2 0.0
21/10:30pm 13.1 9.5 9.9 81 1.7 SSE 19 22 10 12 1015.4 1015.4 0.0
21/10:00pm 13.5 10.4 10.3 81 1.7 S 17 19 9 10 1015.0 1015.0 0.0
21/09:30pm 14.3 11.2 10.3 77 2.1 S 17 20 9 11 1014.8 1014.8 0.0
21/09:00pm 14.8 12.1 10.4 75 2.3 S 15 20 8 11 1014.5 1014.5 0.0
21/08:30pm 15.9 13.0 9.8 67 3.2 S 15 19 8 10 1014.2 1014.2 0.0
21/08:00pm 17.5 13.9 9.9 61 4.0 SSW 19 26 10 14 1013.8 1013.8 0.0
21/07:30pm 19.3 15.6 10.3 56 4.9 SSW 20 26 11 14 1013.4 1013.4 0.0
21/07:00pm 20.9 16.5 10.4 51 5.7 SSW 24 30 13 16 1013.1 1013.1 0.0
21/06:30pm 22.2 19.2 10.7 48 6.4 S 17 20 9 11 1012.8 1012.8 0.0
21/06:00pm 22.7 20.1 9.5 43 7.2 SSW 13 17 7 9 1012.7 1012.7 0.0
21/05:30pm 23.3 20.3 7.8 37 8.2 WSW 13 20 7 11 1012.6 1012.6 0.0
21/05:00pm 23.2 19.8 7.7 37 8.2 SW 15 24 8 13 1012.5 1012.4 0.0
21/04:30pm 24.3 22.3 8.7 37 8.4 SSW 9 22 5 12 1012.5 1012.4 0.0
21/04:00pm 24.1 20.2 7.3 34 8.8 SW 17 26 9 14 1012.7 1012.7 0.0
21/03:30pm 24.3 20.8 7.0 33 9.1 SSW 15 24 8 13 1012.9 1012.9 0.0
21/03:00pm 24.3 21.0 7.9 35 8.7 WSW 15 26 8 14 1013.3 1013.3 0.0
21/02:30pm 22.8 19.3 7.0 36 8.2 W 15 24 8 13 1013.8 1013.8 0.0
21/02:00pm 22.3 18.3 8.1 40 7.5 SW 19 35 10 19 1014.1 1014.1 0.0
21/01:30pm 22.8 20.9 9.2 42 7.3 W 9 19 5 10 1014.5 1014.5 0.0
21/01:00pm 21.9 19.4 8.4 42 7.1 NW 11 19 6 10 1014.8 1014.8 0.0
21/12:30pm 21.6 20.2 9.5 46 6.5 WSW 7 15 4 8 1015.2 1015.2 0.0
21/12:00pm 20.7 18.6 8.4 45 6.5 WSW 9 15 5 8 1015.5 1015.5 0.0
21/11:30am 20.7 18.9 9.3 48 6.1 ESE 9 13 5 7 1015.8 1015.8 0.0
21/11:00am 18.9 17.4 9.1 53 5.2 SSE 7 13 4 7 1016.0 1016.0 0.0
21/10:30am 18.1 17.4 10.0 59 4.3 SSE 4 9 2 5 1016.2 1016.2 0.0
21/10:00am 16.5 15.4 9.9 65 3.5 SSE 6 11 3 6 1016.2 1016.2 0.0
21/09:30am 15.6 14.4 10.4 71 2.8 SSE 7 11 4 6 1016.2 1016.2 0.0
21/09:00am 13.7 12.0 9.7 77 2.1 SSE 9 13 5 7 1016.2 1016.2 0.0
21/08:30am 11.4 9.2 9.3 87 1.1 SSE 11 15 6 8 1016.0 1016.0 0.0
21/08:00am 9.6 7.4 9.5 99 0.0 SSE 11 13 6 7 1015.9 1015.9 0.0
21/07:30am 7.6 5.3 7.5 99 0.0 SSE 9 13 5 7 1015.8 1015.8 0.0
21/07:00am 6.4 3.5 6.3 99 0.0 SSE 11 13 6 7 1015.4 1015.4 0.0
21/06:30am 5.9 2.9 5.8 99 0.0 SSE 11 13 6 7 1014.9 1014.9 0.0
21/06:00am 6.1 3.1 6.0 99 0.0 SSE 11 13 6 7 1014.7 1014.7 0.0
21/05:30am 6.3 3.7 6.2 99 0.0 SSE 9 11 5 6 1014.7 1014.7 0.0
21/05:00am 6.6 4.1 6.5 99 0.0 SSE 9 11 5 6 1014.6 1014.6 0.0
21/04:30am 6.8 3.9 6.7 99 0.0 SSE 11 11 6 6 1014.5 1014.5 0.0
21/04:00am 7.4 4.6 7.1 98 0.1 SSE 11 13 6 7 1014.4 1014.4 0.0
21/03:30am 7.6 5.3 7.3 98 0.1 SSE 9 11 5 6 1014.5 1014.5 0.0
21/03:00am 8.5 6.0 8.1 97 0.2 SSE 11 13 6 7 1014.6 1014.6 0.0
21/02:30am 9.1 6.2 8.3 95 0.4 SSE 13 15 7 8 1014.6 1014.6 0.0
21/02:00am 9.6 6.1 8.7 94 0.4 SSE 17 19 9 10 1014.9 1014.9 0.0
21/01:30am 9.8 7.0 8.7 93 0.5 SSE 13 15 7 8 1015.2 1015.2 0.0
21/01:00am 10.3 7.6 9.1 92 0.6 SSE 13 17 7 9 1015.4 1015.4 0.0
21/12:30am 10.0 6.9 8.8 92 0.6 S 15 17 8 9 1015.4 1015.4 0.0
21/12:00am 10.3 7.1 8.6 89 0.8 S 15 17 8 9 1015.4 1015.4 0.0
 
Date/Time
EDT
Temp
°C
App
Temp
°C
Dew
Point
°C
Rel
Hum
%
Delta-T
°C
Wind Press
QNH
hPa
Press
MSL
hPa
Rain since
9am
mm
Dir  Spd
km/h
Gust
km/h
Spd
kts
Gust
kts
20/11:30pm 10.3 7.7 7.9 85 1.2 S 11 13 6 7 1015.6 1015.6 0.0

Other formats

Comma delimited format used in spreadsheet applications
http://www.bom.gov.au/fwo/IDV60801/IDV60801.94920.axf

JavaScript Object Notation format (JSON) in row-major order
http://www.bom.gov.au/fwo/IDV60801/IDV60801.94920.json

Data quality

Most of these data are generated automatically and are frequently updated. Quality checks on data are not normally performed. It is possible for incorrect values to appear. Refer to information at About Latest Weather Observations and please check the disclaimer before using these data.